sensor_id;sensor_type;location;lat;lon;timestamp;pressure;altitude;pressure_sealevel;temperature;humidity
30856;BME280;17570;0.000;0.000;2023-08-17T10:43:35;96990.19;;;32.20;36.81
30856;BME280;17570;0.000;0.000;2023-08-17T10:46:15;96988.28;;;33.51;35.36
30856;BME280;17570;0.000;0.000;2023-08-17T10:48:44;96984.45;;;35.09;32.81
30856;BME280;17570;0.000;0.000;2023-08-17T10:51:12;96984.38;;;35.98;31.49
30856;BME280;17570;0.000;0.000;2023-08-17T10:53:43;96990.61;;;36.51;30.89
30856;BME280;17570;0.000;0.000;2023-08-17T10:56:12;96991.83;;;36.83;30.50
30856;BME280;17570;0.000;0.000;2023-08-17T11:01:47;96982.37;;;37.23;30.03
30856;BME280;17570;0.000;0.000;2023-08-17T11:04:18;96985.08;;;37.23;30.19
30856;BME280;17570;0.000;0.000;2023-08-17T11:06:46;96983.03;;;37.53;29.83
30856;BME280;17570;0.000;0.000;2023-08-17T11:09:14;96982.31;;;37.80;29.34
30856;BME280;17570;0.000;0.000;2023-08-17T11:11:42;96976.77;;;38.04;29.13
30856;BME280;17570;0.000;0.000;2023-08-17T11:14:10;96976.10;;;38.26;28.99
30856;BME280;17570;0.000;0.000;2023-08-17T11:16:37;96981.46;;;38.45;28.74
30856;BME280;17570;0.000;0.000;2023-08-17T11:19:05;96967.89;;;38.59;28.21
30856;BME280;17570;0.000;0.000;2023-08-17T11:21:32;96969.59;;;38.68;27.99
30856;BME280;17570;0.000;0.000;2023-08-17T11:24:00;96971.31;;;38.78;27.39
30856;BME280;17570;0.000;0.000;2023-08-17T11:26:27;96982.06;;;38.83;27.24
30856;BME280;17570;0.000;0.000;2023-08-17T11:28:55;96972.80;;;38.84;27.17
30856;BME280;17570;0.000;0.000;2023-08-17T11:31:22;96974.92;;;38.87;27.01
30856;BME280;17570;0.000;0.000;2023-08-17T11:33:50;96972.00;;;38.84;26.32
30856;BME280;17570;0.000;0.000;2023-08-17T11:36:17;96960.45;;;38.78;25.95
30856;BME280;17570;0.000;0.000;2023-08-17T11:38:46;96966.28;;;38.71;25.85
30856;BME280;17570;0.000;0.000;2023-08-17T11:41:13;96974.22;;;38.68;25.86
30856;BME280;17570;0.000;0.000;2023-08-17T11:43:42;96970.81;;;38.62;25.68
30856;BME280;17570;0.000;0.000;2023-08-17T11:46:10;96971.72;;;38.58;25.58
30856;BME280;17570;0.000;0.000;2023-08-17T11:48:39;96963.97;;;38.51;25.53
30856;BME280;17570;0.000;0.000;2023-08-17T11:51:06;96970.02;;;38.48;25.53
30856;BME280;17570;0.000;0.000;2023-08-17T11:53:39;96968.91;;;38.49;25.54
30856;BME280;17570;0.000;0.000;2023-08-17T11:56:03;96963.38;;;38.54;25.18
30856;BME280;17570;0.000;0.000;2023-08-17T11:58:40;96969.00;;;38.58;25.00
30856;BME280;17570;0.000;0.000;2023-08-17T12:01:08;96955.33;;;38.63;25.19
30856;BME280;17570;0.000;0.000;2023-08-17T12:03:35;96949.80;;;38.68;25.53
30856;BME280;17570;0.000;0.000;2023-08-17T12:06:02;96954.12;;;38.83;26.39
30856;BME280;17570;0.000;0.000;2023-08-17T12:08:31;96954.28;;;39.00;27.01
30856;BME280;17570;0.000;0.000;2023-08-17T12:11:00;96947.61;;;39.20;27.39
30856;BME280;17570;0.000;0.000;2023-08-17T12:13:31;96948.10;;;39.44;27.13
30856;BME280;17570;0.000;0.000;2023-08-17T12:16:00;96937.92;;;39.72;26.91
30856;BME280;17570;0.000;0.000;2023-08-17T12:18:28;96944.44;;;39.94;26.77
30856;BME280;17570;0.000;0.000;2023-08-17T12:20:55;96934.66;;;40.15;26.06
30856;BME280;17570;0.000;0.000;2023-08-17T12:23:23;96933.90;;;40.32;25.41
30856;BME280;17570;0.000;0.000;2023-08-17T12:25:53;96932.01;;;40.41;25.55
30856;BME280;17570;0.000;0.000;2023-08-17T12:28:22;96920.67;;;40.48;25.53
30856;BME280;17570;0.000;0.000;2023-08-17T12:30:59;96926.30;;;40.51;25.30
30856;BME280;17570;0.000;0.000;2023-08-17T12:33:19;96930.48;;;40.66;25.20
30856;BME280;17570;0.000;0.000;2023-08-17T12:35:46;96927.48;;;40.76;25.15
30856;BME280;17570;0.000;0.000;2023-08-17T12:38:14;96920.27;;;40.89;24.89
30856;BME280;17570;0.000;0.000;2023-08-17T12:40:41;96920.80;;;41.00;24.59
30856;BME280;17570;0.000;0.000;2023-08-17T12:43:09;96917.12;;;41.13;24.59
30856;BME280;17570;0.000;0.000;2023-08-17T12:45:37;96913.39;;;41.35;24.74
30856;BME280;17570;0.000;0.000;2023-08-17T12:48:04;96914.98;;;41.62;24.62
30856;BME280;17570;0.000;0.000;2023-08-17T12:50:32;96912.83;;;41.94;24.49
30856;BME280;17570;0.000;0.000;2023-08-17T12:52:59;96903.55;;;42.24;23.99
30856;BME280;17570;0.000;0.000;2023-08-17T12:55:27;96907.09;;;42.54;23.72
30856;BME280;17570;0.000;0.000;2023-08-17T12:57:54;96906.41;;;42.87;23.54
30856;BME280;17570;0.000;0.000;2023-08-17T13:00:22;96916.48;;;43.16;23.34
30856;BME280;17570;0.000;0.000;2023-08-17T13:02:50;96907.06;;;43.47;23.32
30856;BME280;17570;0.000;0.000;2023-08-17T13:05:17;96902.22;;;43.77;23.18
30856;BME280;17570;0.000;0.000;2023-08-17T13:07:45;96911.08;;;44.07;22.65
30856;BME280;17570;0.000;0.000;2023-08-17T13:10:13;96908.13;;;44.37;22.18
30856;BME280;17570;0.000;0.000;2023-08-17T13:12:40;96912.77;;;44.61;21.65
30856;BME280;17570;0.000;0.000;2023-08-17T13:15:08;96911.04;;;44.80;21.23
30856;BME280;17570;0.000;0.000;2023-08-17T13:17:35;96910.11;;;45.01;20.91
30856;BME280;17570;0.000;0.000;2023-08-17T13:20:03;96913.44;;;45.22;20.65
30856;BME280;17570;0.000;0.000;2023-08-17T13:22:32;96902.31;;;45.43;20.46
30856;BME280;17570;0.000;0.000;2023-08-17T13:25:00;96907.22;;;45.66;20.32
30856;BME280;17570;0.000;0.000;2023-08-17T13:27:27;96900.80;;;45.90;20.17
30856;BME280;17570;0.000;0.000;2023-08-17T13:29:55;96896.97;;;46.10;20.11
30856;BME280;17570;0.000;0.000;2023-08-17T13:32:24;96897.52;;;46.32;19.84
30856;BME280;17570;0.000;0.000;2023-08-17T13:34:52;96906.22;;;46.53;19.46
30856;BME280;17570;0.000;0.000;2023-08-17T13:37:19;96907.44;;;46.71;19.35
30856;BME280;17570;0.000;0.000;2023-08-17T13:39:47;96913.61;;;46.84;19.01
30856;BME280;17570;0.000;0.000;2023-08-17T13:42:14;96909.70;;;46.85;19.07
30856;BME280;17570;0.000;0.000;2023-08-17T13:44:42;96893.28;;;46.89;19.03
30856;BME280;17570;0.000;0.000;2023-08-17T13:47:10;96905.61;;;46.95;19.12
30856;BME280;17570;0.000;0.000;2023-08-17T13:49:37;96894.77;;;47.02;19.09
30856;BME280;17570;0.000;0.000;2023-08-17T13:52:05;96898.09;;;47.11;19.05
30856;BME280;17570;0.000;0.000;2023-08-17T13:54:33;96899.80;;;47.19;18.81
30856;BME280;17570;0.000;0.000;2023-08-17T13:57:01;96901.91;;;47.26;18.86
30856;BME280;17570;0.000;0.000;2023-08-17T13:59:28;96898.90;;;47.31;18.87
30856;BME280;17570;0.000;0.000;2023-08-17T14:01:56;96899.16;;;47.26;20.79
30856;BME280;17570;0.000;0.000;2023-08-17T14:04:23;96908.34;;;47.14;20.09
30856;BME280;17570;0.000;0.000;2023-08-17T14:06:51;96894.69;;;46.98;19.62
30856;BME280;17570;0.000;0.000;2023-08-17T14:09:18;96897.03;;;46.80;18.82
30856;BME280;17570;0.000;0.000;2023-08-17T14:11:46;96889.85;;;46.57;17.97
30856;BME280;17570;0.000;0.000;2023-08-17T14:14:13;96896.44;;;46.36;17.47
30856;BME280;17570;0.000;0.000;2023-08-17T14:16:41;96901.39;;;46.15;17.19
30856;BME280;17570;0.000;0.000;2023-08-17T14:19:09;96895.30;;;45.90;16.63
30856;BME280;17570;0.000;0.000;2023-08-17T14:21:37;96902.32;;;45.59;16.45
30856;BME280;17570;0.000;0.000;2023-08-17T14:24:04;96902.22;;;45.27;16.61
30856;BME280;17570;0.000;0.000;2023-08-17T14:26:34;96897.42;;;44.96;16.89
30856;BME280;17570;0.000;0.000;2023-08-17T14:29:01;96902.76;;;44.65;17.29
30856;BME280;17570;0.000;0.000;2023-08-17T14:31:29;96901.86;;;44.36;17.70
30856;BME280;17570;0.000;0.000;2023-08-17T14:33:57;96903.08;;;44.14;18.26
30856;BME280;17570;0.000;0.000;2023-08-17T14:36:24;96899.98;;;43.91;18.47
30856;BME280;17570;0.000;0.000;2023-08-17T14:38:52;96905.75;;;43.65;18.67
30856;BME280;17570;0.000;0.000;2023-08-17T14:41:19;96912.72;;;43.42;18.58
30856;BME280;17570;0.000;0.000;2023-08-17T14:43:47;96899.73;;;43.18;18.65
30856;BME280;17570;0.000;0.000;2023-08-17T14:46:14;96902.12;;;42.98;19.53
30856;BME280;17570;0.000;0.000;2023-08-17T14:48:42;96904.53;;;42.79;19.69
30856;BME280;17570;0.000;0.000;2023-08-17T14:51:09;96911.22;;;42.61;19.38
30856;BME280;17570;0.000;0.000;2023-08-17T14:53:37;96907.34;;;42.41;19.93
30856;BME280;17570;0.000;0.000;2023-08-17T14:56:04;96909.02;;;42.24;19.81
30856;BME280;17570;0.000;0.000;2023-08-17T14:58:32;96897.38;;;42.07;20.15
30856;BME280;17570;0.000;0.000;2023-08-17T15:00:59;96906.42;;;41.90;21.07
30856;BME280;17570;0.000;0.000;2023-08-17T15:03:27;96907.40;;;41.76;21.57
30856;BME280;17570;0.000;0.000;2023-08-17T15:05:54;96904.88;;;41.63;21.80
30856;BME280;17570;0.000;0.000;2023-08-17T15:08:22;96902.33;;;41.49;21.53
30856;BME280;17570;0.000;0.000;2023-08-17T15:10:49;96897.56;;;41.37;21.24
30856;BME280;17570;0.000;0.000;2023-08-17T15:13:17;96908.74;;;41.27;21.39
30856;BME280;17570;0.000;0.000;2023-08-17T15:15:45;96908.95;;;41.13;21.47
30856;BME280;17570;0.000;0.000;2023-08-17T15:18:12;96897.09;;;41.00;21.89
30856;BME280;17570;0.000;0.000;2023-08-17T15:20:40;96894.48;;;40.87;22.32
30856;BME280;17570;0.000;0.000;2023-08-17T15:23:07;96896.73;;;40.76;22.28
30856;BME280;17570;0.000;0.000;2023-08-17T15:25:35;96901.37;;;40.67;23.00
30856;BME280;17570;0.000;0.000;2023-08-17T15:28:02;96896.70;;;40.59;23.25
30856;BME280;17570;0.000;0.000;2023-08-17T15:30:30;96899.70;;;40.48;23.04
30856;BME280;17570;0.000;0.000;2023-08-17T15:32:57;96894.39;;;40.35;22.93
30856;BME280;17570;0.000;0.000;2023-08-17T15:35:25;96892.91;;;40.28;22.92
30856;BME280;17570;0.000;0.000;2023-08-17T15:37:52;96890.67;;;40.22;23.10
30856;BME280;17570;0.000;0.000;2023-08-17T15:40:20;96897.20;;;40.12;23.32
30856;BME280;17570;0.000;0.000;2023-08-17T15:42:47;96893.00;;;40.06;23.81
30856;BME280;17570;0.000;0.000;2023-08-17T15:45:15;96894.88;;;39.97;24.12
30856;BME280;17570;0.000;0.000;2023-08-17T15:47:44;96889.41;;;39.88;24.58
30856;BME280;17570;0.000;0.000;2023-08-17T15:50:12;96884.72;;;39.80;24.64
30856;BME280;17570;0.000;0.000;2023-08-17T15:52:39;96888.52;;;39.70;24.51
30856;BME280;17570;0.000;0.000;2023-08-17T15:55:07;96889.84;;;39.59;24.56
30856;BME280;17570;0.000;0.000;2023-08-17T15:57:34;96892.22;;;39.52;24.83
30856;BME280;17570;0.000;0.000;2023-08-17T16:00:03;96887.23;;;39.45;25.45
30856;BME280;17570;0.000;0.000;2023-08-17T16:02:32;96892.77;;;39.40;25.91
30856;BME280;17570;0.000;0.000;2023-08-17T16:04:59;96889.20;;;39.31;25.39
30856;BME280;17570;0.000;0.000;2023-08-17T16:07:27;96892.05;;;39.26;25.76
30856;BME280;17570;0.000;0.000;2023-08-17T16:09:55;96893.86;;;39.17;25.60
30856;BME280;17570;0.000;0.000;2023-08-17T16:12:22;96887.76;;;39.11;25.87
30856;BME280;17570;0.000;0.000;2023-08-17T16:14:50;96904.97;;;39.07;26.42
30856;BME280;17570;0.000;0.000;2023-08-17T16:17:17;96896.76;;;38.98;26.30
30856;BME280;17570;0.000;0.000;2023-08-17T16:19:45;96903.73;;;38.90;25.80
30856;BME280;17570;0.000;0.000;2023-08-17T16:22:12;96904.14;;;38.84;27.06
30856;BME280;17570;0.000;0.000;2023-08-17T16:24:40;96901.86;;;38.77;27.16
30856;BME280;17570;0.000;0.000;2023-08-17T16:27:07;96908.29;;;38.67;27.17
30856;BME280;17570;0.000;0.000;2023-08-17T16:29:35;96908.41;;;38.62;27.42
30856;BME280;17570;0.000;0.000;2023-08-17T16:32:04;96908.31;;;38.53;27.76
30856;BME280;17570;0.000;0.000;2023-08-17T16:34:32;96903.20;;;38.52;28.47
30856;BME280;17570;0.000;0.000;2023-08-17T16:37:00;96907.91;;;38.46;28.68
30856;BME280;17570;0.000;0.000;2023-08-17T16:39:27;96907.81;;;38.38;29.10
30856;BME280;17570;0.000;0.000;2023-08-17T16:41:55;96905.80;;;38.29;29.35
30856;BME280;17570;0.000;0.000;2023-08-17T16:44:23;96911.12;;;38.21;28.65
30856;BME280;17570;0.000;0.000;2023-08-17T16:46:51;96919.15;;;38.12;29.31
30856;BME280;17570;0.000;0.000;2023-08-17T16:49:18;96917.82;;;37.96;28.70
30856;BME280;17570;0.000;0.000;2023-08-17T16:51:45;96915.30;;;37.86;29.20
30856;BME280;17570;0.000;0.000;2023-08-17T16:54:13;96872.67;;;37.45;29.48
30856;BME280;17570;0.000;0.000;2023-08-17T16:56:40;96924.27;;;37.67;29.63
30856;BME280;17570;0.000;0.000;2023-08-17T16:59:10;96925.25;;;37.58;29.94
30856;BME280;17570;0.000;0.000;2023-08-17T17:01:37;96925.21;;;37.44;30.63
30856;BME280;17570;0.000;0.000;2023-08-17T17:04:05;96930.27;;;37.32;29.96
30856;BME280;17570;0.000;0.000;2023-08-17T17:06:33;96935.33;;;37.19;30.11
30856;BME280;17570;0.000;0.000;2023-08-17T17:09:00;96931.97;;;37.09;30.85
30856;BME280;17570;0.000;0.000;2023-08-17T17:11:28;96931.60;;;36.96;30.74
30856;BME280;17570;0.000;0.000;2023-08-17T17:13:55;96934.39;;;36.91;31.21
30856;BME280;17570;0.000;0.000;2023-08-17T17:16:23;96937.13;;;36.86;31.03
30856;BME280;17570;0.000;0.000;2023-08-17T17:18:50;96934.27;;;36.77;31.74
30856;BME280;17570;0.000;0.000;2023-08-17T17:21:18;96934.64;;;36.71;31.90
30856;BME280;17570;0.000;0.000;2023-08-17T17:23:46;96934.75;;;36.61;31.90
30856;BME280;17570;0.000;0.000;2023-08-17T17:26:14;96940.23;;;36.56;32.14
30856;BME280;17570;0.000;0.000;2023-08-17T17:28:41;96939.50;;;36.50;32.16
30856;BME280;17570;0.000;0.000;2023-08-17T17:31:09;96945.30;;;36.38;32.08
30856;BME280;17570;0.000;0.000;2023-08-17T17:33:36;96943.52;;;36.28;32.12
30856;BME280;17570;0.000;0.000;2023-08-17T17:36:04;96940.64;;;36.20;32.04
30856;BME280;17570;0.000;0.000;2023-08-17T17:38:31;96949.88;;;36.14;32.12
30856;BME280;17570;0.000;0.000;2023-08-17T17:40:59;96949.99;;;36.03;32.57
30856;BME280;17570;0.000;0.000;2023-08-17T17:43:27;96951.44;;;35.96;32.99
30856;BME280;17570;0.000;0.000;2023-08-17T17:45:54;96949.03;;;35.89;32.54
30856;BME280;17570;0.000;0.000;2023-08-17T17:48:22;96955.04;;;35.81;33.30
30856;BME280;17570;0.000;0.000;2023-08-17T17:50:49;96962.13;;;35.77;32.88
30856;BME280;17570;0.000;0.000;2023-08-17T17:53:17;96958.89;;;35.75;33.17
30856;BME280;17570;0.000;0.000;2023-08-17T17:55:44;96955.98;;;35.66;33.18
30856;BME280;17570;0.000;0.000;2023-08-17T17:58:12;96961.44;;;35.61;33.18
30856;BME280;17570;0.000;0.000;2023-08-17T18:00:39;96963.12;;;35.52;33.13
30856;BME280;17570;0.000;0.000;2023-08-17T18:03:10;96966.42;;;35.49;33.68
30856;BME280;17570;0.000;0.000;2023-08-17T18:05:39;96969.93;;;35.44;33.53
30856;BME280;17570;0.000;0.000;2023-08-17T18:08:07;96977.28;;;35.34;33.64
30856;BME280;17570;0.000;0.000;2023-08-17T18:10:43;96976.80;;;35.26;33.66
30856;BME280;17570;0.000;0.000;2023-08-17T18:13:07;96980.59;;;35.25;33.85
30856;BME280;17570;0.000;0.000;2023-08-17T18:15:35;96981.69;;;35.19;33.83
30856;BME280;17570;0.000;0.000;2023-08-17T18:18:03;96987.93;;;35.15;34.02
30856;BME280;17570;0.000;0.000;2023-08-17T18:20:31;96990.37;;;35.11;33.91
30856;BME280;17570;0.000;0.000;2023-08-17T18:22:59;96995.28;;;35.04;34.11
30856;BME280;17570;0.000;0.000;2023-08-17T18:25:26;96993.16;;;34.96;34.15
30856;BME280;17570;0.000;0.000;2023-08-17T18:27:56;96997.75;;;34.90;34.19
30856;BME280;17570;0.000;0.000;2023-08-17T18:30:23;96996.69;;;34.86;34.15
30856;BME280;17570;0.000;0.000;2023-08-17T18:32:51;97004.52;;;34.83;34.41
30856;BME280;17570;0.000;0.000;2023-08-17T18:35:18;96999.70;;;34.80;34.37
30856;BME280;17570;0.000;0.000;2023-08-17T18:37:46;96999.44;;;34.76;34.43
30856;BME280;17570;0.000;0.000;2023-08-17T18:40:13;97014.04;;;34.70;34.67
30856;BME280;17570;0.000;0.000;2023-08-17T18:42:41;97007.30;;;34.67;34.82
30856;BME280;17570;0.000;0.000;2023-08-17T18:45:09;97006.80;;;34.60;34.91
30856;BME280;17570;0.000;0.000;2023-08-17T18:47:37;97003.03;;;34.56;34.80
30856;BME280;17570;0.000;0.000;2023-08-17T18:50:05;97011.94;;;34.51;34.82
30856;BME280;17570;0.000;0.000;2023-08-17T18:52:33;97007.88;;;34.44;34.86
30856;BME280;17570;0.000;0.000;2023-08-17T18:55:01;97015.18;;;34.38;34.78
30856;BME280;17570;0.000;0.000;2023-08-17T18:57:29;97020.02;;;34.36;34.84
30856;BME280;17570;0.000;0.000;2023-08-17T18:59:56;97011.95;;;34.31;34.82
30856;BME280;17570;0.000;0.000;2023-08-17T19:02:24;97018.96;;;34.27;35.10
30856;BME280;17570;0.000;0.000;2023-08-17T19:04:52;97018.72;;;34.23;35.11
30856;BME280;17570;0.000;0.000;2023-08-17T19:07:19;97026.53;;;34.20;35.13
30856;BME280;17570;0.000;0.000;2023-08-17T19:09:47;97020.07;;;34.16;35.13
30856;BME280;17570;0.000;0.000;2023-08-17T19:12:15;97016.30;;;34.12;35.14
30856;BME280;17570;0.000;0.000;2023-08-17T19:14:44;97019.81;;;34.07;35.32
30856;BME280;17570;0.000;0.000;2023-08-17T19:17:12;97018.73;;;34.03;35.22
30856;BME280;17570;0.000;0.000;2023-08-17T19:19:40;97023.84;;;33.99;35.50
30856;BME280;17570;0.000;0.000;2023-08-17T19:22:07;97027.38;;;33.95;35.37
30856;BME280;17570;0.000;0.000;2023-08-17T19:24:35;97025.19;;;33.92;35.28
30856;BME280;17570;0.000;0.000;2023-08-17T19:30:10;97023.31;;;33.82;35.40
30856;BME280;17570;0.000;0.000;2023-08-17T19:32:38;97021.95;;;33.54;35.75
30856;BME280;17570;0.000;0.000;2023-08-17T19:35:08;97014.68;;;33.60;35.67
30856;BME280;17570;0.000;0.000;2023-08-17T19:37:36;97014.68;;;33.60;35.66
30856;BME280;17570;0.000;0.000;2023-08-17T19:40:04;97017.90;;;33.62;35.65
30856;BME280;17570;0.000;0.000;2023-08-17T19:42:32;97012.27;;;33.58;35.64
30856;BME280;17570;0.000;0.000;2023-08-17T19:44:59;97007.94;;;33.57;35.65
30856;BME280;17570;0.000;0.000;2023-08-17T19:47:27;97005.80;;;33.54;35.71
30856;BME280;17570;0.000;0.000;2023-08-17T19:49:55;97006.84;;;33.48;35.69
30856;BME280;17570;0.000;0.000;2023-08-17T19:52:22;97005.20;;;33.42;35.69
30856;BME280;17570;0.000;0.000;2023-08-17T19:54:50;97005.20;;;33.37;35.64
30856;BME280;17570;0.000;0.000;2023-08-17T19:57:23;97012.47;;;33.31;35.55
30856;BME280;17570;0.000;0.000;2023-08-17T19:59:47;97017.84;;;33.26;35.83
30856;BME280;17570;0.000;0.000;2023-08-17T20:02:15;97013.26;;;33.21;35.97
30856;BME280;17570;0.000;0.000;2023-08-17T20:04:44;97015.39;;;33.19;36.04
30856;BME280;17570;0.000;0.000;2023-08-17T20:07:11;97013.78;;;33.18;35.93
30856;BME280;17570;0.000;0.000;2023-08-17T20:09:39;97018.63;;;33.16;36.03
30856;BME280;17570;0.000;0.000;2023-08-17T20:12:06;97022.64;;;33.14;36.18
30856;BME280;17570;0.000;0.000;2023-08-17T20:14:35;97026.93;;;33.10;36.27
30856;BME280;17570;0.000;0.000;2023-08-17T20:17:02;97027.20;;;33.08;36.54
30856;BME280;17570;0.000;0.000;2023-08-17T20:19:30;97025.03;;;33.05;36.41
30856;BME280;17570;0.000;0.000;2023-08-17T20:21:59;97025.58;;;33.02;36.41
30856;BME280;17570;0.000;0.000;2023-08-17T20:24:26;97022.05;;;32.96;36.42
30856;BME280;17570;0.000;0.000;2023-08-17T20:26:54;97026.04;;;32.89;36.41
30856;BME280;17570;0.000;0.000;2023-08-17T20:29:21;97016.31;;;32.83;36.25
30856;BME280;17570;0.000;0.000;2023-08-17T20:31:48;97024.93;;;32.80;36.38
30856;BME280;17570;0.000;0.000;2023-08-17T20:34:16;97022.23;;;32.80;36.54
30856;BME280;17570;0.000;0.000;2023-08-17T20:36:44;97016.84;;;32.74;36.53
30856;BME280;17570;0.000;0.000;2023-08-17T20:39:11;97015.98;;;32.69;36.50
30856;BME280;17570;0.000;0.000;2023-08-17T20:41:40;97015.98;;;32.69;36.72
30856;BME280;17570;0.000;0.000;2023-08-17T20:44:08;97012.47;;;32.63;36.53
30856;BME280;17570;0.000;0.000;2023-08-17T20:46:35;97018.13;;;32.62;36.60
30856;BME280;17570;0.000;0.000;2023-08-17T20:49:03;97020.22;;;32.55;36.50
30856;BME280;17570;0.000;0.000;2023-08-17T20:51:31;97019.67;;;32.47;36.45
30856;BME280;17570;0.000;0.000;2023-08-17T20:53:58;97022.84;;;32.39;36.44
30856;BME280;17570;0.000;0.000;2023-08-17T20:56:26;97020.09;;;32.34;36.44
30856;BME280;17570;0.000;0.000;2023-08-17T20:58:53;97018.81;;;32.37;36.77
30856;BME280;17570;0.000;0.000;2023-08-17T21:01:21;97023.11;;;32.38;36.81
30856;BME280;17570;0.000;0.000;2023-08-17T21:03:48;97014.45;;;32.36;36.80
30856;BME280;17570;0.000;0.000;2023-08-17T21:06:16;97020.60;;;32.31;36.93
30856;BME280;17570;0.000;0.000;2023-08-17T21:08:44;97019.53;;;32.27;36.86
30856;BME280;17570;0.000;0.000;2023-08-17T21:11:11;97015.98;;;32.21;36.89
30856;BME280;17570;0.000;0.000;2023-08-17T21:13:39;97017.56;;;32.17;36.95
30856;BME280;17570;0.000;0.000;2023-08-17T21:16:07;97020.78;;;32.14;36.99
30856;BME280;17570;0.000;0.000;2023-08-17T21:18:35;97025.35;;;32.14;37.16
30856;BME280;17570;0.000;0.000;2023-08-17T21:21:03;97023.20;;;32.16;37.12
30856;BME280;17570;0.000;0.000;2023-08-17T21:23:30;97026.16;;;32.14;37.43
30856;BME280;17570;0.000;0.000;2023-08-17T21:25:59;97028.03;;;32.14;37.47
30856;BME280;17570;0.000;0.000;2023-08-17T21:28:26;97029.86;;;32.08;37.66
30856;BME280;17570;0.000;0.000;2023-08-17T21:30:59;97034.42;;;32.08;37.61
30856;BME280;17570;0.000;0.000;2023-08-17T21:33:22;97033.04;;;32.00;37.56
30856;BME280;17570;0.000;0.000;2023-08-17T21:35:53;97025.19;;;31.93;37.48
30856;BME280;17570;0.000;0.000;2023-08-17T21:38:19;97034.81;;;31.89;37.59
30856;BME280;17570;0.000;0.000;2023-08-17T21:40:46;97042.33;;;31.87;37.57
30856;BME280;17570;0.000;0.000;2023-08-17T21:43:14;97040.72;;;31.86;37.84
30856;BME280;17570;0.000;0.000;2023-08-17T21:45:42;97040.72;;;31.86;37.86
30856;BME280;17570;0.000;0.000;2023-08-17T21:48:09;97048.20;;;31.84;37.86
30856;BME280;17570;0.000;0.000;2023-08-17T21:50:36;97036.59;;;31.79;37.87
30856;BME280;17570;0.000;0.000;2023-08-17T21:53:04;97043.80;;;31.73;37.95
30856;BME280;17570;0.000;0.000;2023-08-17T21:55:33;97047.51;;;31.67;37.95
30856;BME280;17570;0.000;0.000;2023-08-17T21:58:01;97054.67;;;31.61;37.96
30856;BME280;17570;0.000;0.000;2023-08-17T22:00:28;97052.00;;;31.61;38.18
30856;BME280;17570;0.000;0.000;2023-08-17T22:02:56;97051.45;;;31.59;38.02
30856;BME280;17570;0.000;0.000;2023-08-17T22:05:23;97054.63;;;31.56;38.07
30856;BME280;17570;0.000;0.000;2023-08-17T22:07:51;97059.45;;;31.54;38.03
30856;BME280;17570;0.000;0.000;2023-08-17T22:10:18;97063.70;;;31.50;38.08
30856;BME280;17570;0.000;0.000;2023-08-17T22:12:47;97055.66;;;31.50;38.34
30856;BME280;17570;0.000;0.000;2023-08-17T22:15:15;97056.16;;;31.47;38.21
30856;BME280;17570;0.000;0.000;2023-08-17T22:17:43;97058.55;;;31.43;38.14
30856;BME280;17570;0.000;0.000;2023-08-17T22:20:11;97056.05;;;31.37;38.29
30856;BME280;17570;0.000;0.000;2023-08-17T22:23:36;97047.56;;;31.45;38.39
30856;BME280;17570;0.000;0.000;2023-08-17T22:26:04;97041.78;;;31.31;38.46
30856;BME280;17570;0.000;0.000;2023-08-17T22:28:31;97050.91;;;31.30;38.61
30856;BME280;17570;0.000;0.000;2023-08-17T22:31:02;97045.77;;;31.29;38.58
30856;BME280;17570;0.000;0.000;2023-08-17T22:34:35;97049.34;;;31.34;38.75
30856;BME280;17570;0.000;0.000;2023-08-17T22:37:03;97044.08;;;31.22;39.08
30856;BME280;17570;0.000;0.000;2023-08-17T22:39:31;97047.56;;;31.23;38.72
30856;BME280;17570;0.000;0.000;2023-08-17T22:41:58;97050.51;;;31.21;38.72
30856;BME280;17570;0.000;0.000;2023-08-17T22:44:26;97048.31;;;31.18;38.76
30856;BME280;17570;0.000;0.000;2023-08-17T22:46:54;97050.14;;;31.13;38.70
30856;BME280;17570;0.000;0.000;2023-08-17T22:49:22;97050.69;;;31.15;38.76
30856;BME280;17570;0.000;0.000;2023-08-17T22:51:50;97052.82;;;31.13;39.00
30856;BME280;17570;0.000;0.000;2023-08-17T22:54:17;97052.77;;;31.08;38.97
30856;BME280;17570;0.000;0.000;2023-08-17T22:56:45;97055.12;;;31.04;39.04
30856;BME280;17570;0.000;0.000;2023-08-17T22:59:12;97057.00;;;31.04;39.08
30856;BME280;17570;0.000;0.000;2023-08-17T23:01:40;97061.02;;;31.01;38.97
30856;BME280;17570;0.000;0.000;2023-08-17T23:04:07;97058.02;;;30.97;38.95
30856;BME280;17570;0.000;0.000;2023-08-17T23:06:35;97063.12;;;30.99;39.12
30856;BME280;17570;0.000;0.000;2023-08-17T23:09:02;97064.19;;;30.98;39.01
30856;BME280;17570;0.000;0.000;2023-08-17T23:11:30;97063.06;;;30.94;39.09
30856;BME280;17570;0.000;0.000;2023-08-17T23:13:57;97064.61;;;30.90;39.00
30856;BME280;17570;0.000;0.000;2023-08-17T23:16:25;97070.46;;;30.87;39.20
30856;BME280;17570;0.000;0.000;2023-08-17T23:18:52;97068.62;;;30.87;39.21
30856;BME280;17570;0.000;0.000;2023-08-17T23:21:20;97060.00;;;30.85;39.14
30856;BME280;17570;0.000;0.000;2023-08-17T23:23:47;97066.91;;;30.81;39.16
30856;BME280;17570;0.000;0.000;2023-08-17T23:26:15;97065.55;;;30.79;39.19
30856;BME280;17570;0.000;0.000;2023-08-17T23:28:42;97059.30;;;30.73;39.22
30856;BME280;17570;0.000;0.000;2023-08-17T23:31:10;97056.52;;;30.68;39.36
30856;BME280;17570;0.000;0.000;2023-08-17T23:33:37;97064.33;;;30.69;39.38
30856;BME280;17570;0.000;0.000;2023-08-17T23:36:05;97054.67;;;30.68;39.39
30856;BME280;17570;0.000;0.000;2023-08-17T23:38:32;97047.12;;;30.65;39.35
30856;BME280;17570;0.000;0.000;2023-08-17T23:41:00;97049.55;;;30.67;39.45
30856;BME280;17570;0.000;0.000;2023-08-17T23:43:28;97048.19;;;30.64;39.59
30856;BME280;17570;0.000;0.000;2023-08-17T23:45:55;97046.87;;;30.67;39.56
30856;BME280;17570;0.000;0.000;2023-08-17T23:48:23;97043.06;;;30.63;39.53
30856;BME280;17570;0.000;0.000;2023-08-17T23:50:50;97050.22;;;30.57;39.36
30856;BME280;17570;0.000;0.000;2023-08-17T23:53:18;97046.41;;;30.53;39.54
30856;BME280;17570;0.000;0.000;2023-08-17T23:55:45;97039.44;;;30.52;39.67
30856;BME280;17570;0.000;0.000;2023-08-17T23:58:13;97038.70;;;30.57;39.66
